サンクトペテルブルク の空港の天気 - METARとTAF

プルコヴォ空港(サンクトペテルブルグ) ( ULLI / LED ) - ロシア サンクトペテルブルク
飛行場実況気象(Metar)
観測時間10/25 21:30 MSK (10/25 18:30 UTC)
風向・風速不定 1m/s
視程10km以上
天気現象
全天を覆う雲 雲底高度 460m
気温6℃
湿度87%
気圧1015hPa
METARULLI 251830Z VRB01MPS 9999 OVC015 06/04 Q1015 R10R/290050 NOSIG
過去の天気等 Google飛行場航空写真 Wunderground天気予報

過去48時間のMETAR

飛行場予報(TAF)
発表時間: 10/25 19:55 MSK (10/25 16:55 UTC)
予報対象時間: 25日21時 MSK ~ 26日21時 MSK
風向・風速南南東 3m/s
視程6000m
全天の8割程度の雲 雲底高度 490m
25日22時 MSK ~ 25日23時 MSK に徐々に
視程3100m
天気現象もや
少しの雲 雲底高度 300m
全天の8割程度の雲 雲底高度 490m
25日23時 MSK ~ 26日9時 MSK に一時的に
視程400m
天気現象
全天を覆う雲 鉛直視程 60m
26日9時 MSK から
風向・風速南 3m/s 瞬間風速 8m/s
視程10km以上
全天の8割程度の雲 雲底高度 340m
全天の8割程度の雲 雲底高度 610m
TAF ULLI 251655Z 2518/2618 16003MPS 6000 BKN016
BECMG 2519/2520 3100 BR FEW010 BKN016
TEMPO 2520/2606 0400 FG VV002
FM260600 18003G08MPS 9999 BKN011 BKN020